Time;durP1;ratioP1;P1;durP2;ratioP2;P2;SDS_P1;SDS_P2;PMS_P1;PMS_P2;Temp;Humidity;BMP_temperature;BMP_pressure;BME280_temperature;BME280_humidity;BME280_pressure;Samples;Min_cycle;Max_cycle;Signal;HPM_P1;HPM_P2
2023/10/20 00:01:49;;;;;;;;;0.00;0.00;;;;;17.74;80.68;97587.91;5099454;27;45319;-73
2023/10/20 00:04:16;;;;;;;;;1.00;0.00;;;;;17.44;80.87;97537.63;5098500;27;45335;-73
2023/10/20 00:06:41;;;;;;;;;0.00;0.00;;;;;17.74;80.77;97590.59;5098922;27;46727;-71
2023/10/20 00:09:06;;;;;;;;;0.00;0.00;;;;;17.66;81.18;97569.63;5099335;27;45418;-74
2023/10/20 00:11:32;;;;;;;;;1.00;0.25;;;;;17.67;80.84;97562.38;5080687;27;45414;-72
2023/10/20 00:13:59;;;;;;;;;0.00;0.00;;;;;17.70;81.26;97568.03;5099406;27;45445;-72
2023/10/20 00:16:26;;;;;;;;;0.00;0.00;;;;;17.63;81.16;97552.16;5099045;27;46643;-73
2023/10/20 00:18:51;;;;;;;;;0.00;0.00;;;;;17.63;80.92;97551.34;5099079;27;45297;-73
2023/10/20 00:21:17;;;;;;;;;0.00;0.00;;;;;17.66;80.96;97556.19;5099167;27;45288;-73
2023/10/20 00:23:42;;;;;;;;;0.00;0.00;;;;;17.56;80.97;97543.53;5099084;27;45443;-72
2023/10/20 00:26:07;;;;;;;;;0.00;0.00;;;;;17.60;81.02;97527.69;5098070;27;63840;-73
2023/10/20 00:28:32;;;;;;;;;0.00;0.00;;;;;17.56;80.83;97519.34;5098915;27;45318;-73
2023/10/20 00:30:58;;;;;;;;;0.00;0.00;;;;;17.69;81.11;97528.00;5098973;27;45457;-73
2023/10/20 00:33:23;;;;;;;;;0.00;0.00;;;;;17.66;81.15;97534.69;5099429;27;45186;-72
2023/10/20 00:35:48;;;;;;;;;0.00;0.00;;;;;17.63;81.25;97544.09;5098871;27;45689;-72
2023/10/20 00:38:14;;;;;;;;;1.00;1.00;;;;;17.67;81.33;97541.69;5098524;27;45394;-72
2023/10/20 00:40:46;;;;;;;;;0.00;0.00;;;;;17.61;81.38;97538.16;5098549;27;45440;-72
2023/10/20 00:43:11;;;;;;;;;0.00;0.00;;;;;17.61;81.17;97532.78;5098916;27;45326;-72
2023/10/20 00:45:39;;;;;;;;;0.50;0.00;;;;;17.56;81.88;97538.16;5097628;27;71235;-73
2023/10/20 00:48:06;;;;;;;;;1.00;0.00;;;;;17.57;81.80;97541.66;5098733;27;45363;-73
2023/10/20 00:50:33;;;;;;;;;0.00;0.00;;;;;17.55;81.66;97551.88;5098790;27;45295;-74
2023/10/20 00:53:00;;;;;;;;;0.00;0.00;;;;;17.54;81.84;97553.75;5098831;27;45439;-72
2023/10/20 00:55:26;;;;;;;;;0.50;0.50;;;;;17.57;82.10;97552.41;5098089;27;46910;-72
2023/10/20 00:57:53;;;;;;;;;0.00;0.00;;;;;17.60;81.69;97541.13;5080046;27;45427;-72
2023/10/20 01:00:20;;;;;;;;;0.00;0.00;;;;;17.62;81.77;97533.63;5080267;27;45258;-71
2023/10/20 01:02:46;;;;;;;;;0.00;0.00;;;;;17.59;81.89;97528.75;5098499;27;45178;-72
2023/10/20 01:05:17;;;;;;;;;0.00;0.00;;;;;17.70;81.48;97541.16;5098395;27;46096;-73
2023/10/20 01:07:43;;;;;;;;;1.50;0.50;;;;;17.75;81.06;97534.97;5098007;27;45734;-72
2023/10/20 01:10:09;;;;;;;;;0.00;0.00;;;;;17.76;80.94;97525.84;5098066;27;45238;-72
2023/10/20 01:12:35;;;;;;;;;0.00;0.00;;;;;17.68;80.80;97505.72;5098655;27;45365;-72
2023/10/20 01:15:02;;;;;;;;;0.00;0.00;;;;;17.75;80.78;97503.53;5097878;27;46427;-73
2023/10/20 01:17:28;;;;;;;;;1.00;0.00;;;;;17.71;80.72;97474.81;5098146;27;45285;-73
2023/10/20 01:19:54;;;;;;;;;0.00;0.00;;;;;17.76;80.49;97497.09;5098161;27;45401;-72
2023/10/20 01:22:19;;;;;;;;;0.00;0.00;;;;;17.63;80.02;97479.63;5098154;27;45228;-72
2023/10/20 01:24:44;;;;;;;;;0.00;0.00;;;;;17.67;80.05;97504.06;5097831;27;46259;-73
2023/10/20 01:27:10;;;;;;;;;0.00;0.00;;;;;17.67;80.00;97514.81;5097718;27;45475;-73
2023/10/20 01:29:35;;;;;;;;;0.00;0.00;;;;;17.56;79.78;97491.69;5098278;27;45348;-73
2023/10/20 01:32:00;;;;;;;;;0.00;0.00;;;;;17.37;78.79;97459.19;5098430;27;45508;-73
2023/10/20 01:34:26;;;;;;;;;0.00;0.00;;;;;17.62;77.78;97487.94;5097890;27;46701;-73
2023/10/20 01:36:51;;;;;;;;;0.00;0.00;;;;;17.49;76.85;97461.63;5097486;27;45381;-73
2023/10/20 01:39:17;;;;;;;;;0.00;0.00;;;;;17.19;75.90;97412.19;5097902;27;45506;-72
2023/10/20 01:41:42;;;;;;;;;0.00;0.00;;;;;17.27;76.29;97410.88;5098029;27;45549;-73
2023/10/20 01:44:11;;;;;;;;;0.00;0.00;;;;;17.57;76.10;97450.31;5097470;27;46493;-74
2023/10/20 01:46:37;;;;;;;;;0.00;0.00;;;;;17.49;76.25;97432.88;5097983;27;45475;-72
2023/10/20 01:49:02;;;;;;;;;0.00;0.00;;;;;17.44;75.73;97429.41;5097806;27;45446;-73
2023/10/20 01:51:27;;;;;;;;;0.00;0.00;;;;;17.48;75.94;97430.47;5097932;27;45318;-73
2023/10/20 01:53:53;;;;;;;;;0.00;0.00;;;;;17.53;75.58;97423.22;5097651;27;46639;-73
2023/10/20 01:56:18;;;;;;;;;0.50;0.00;;;;;17.51;74.40;97435.28;5097500;27;45371;-73
2023/10/20 01:58:43;;;;;;;;;0.00;0.00;;;;;17.51;74.31;97427.25;5097441;27;49694;-72
2023/10/20 02:01:09;;;;;;;;;0.00;0.00;;;;;17.41;75.23;97411.13;5097662;27;45416;-72
2023/10/20 02:03:34;;;;;;;;;0.00;0.00;;;;;17.42;75.00;97391.25;5097448;27;46562;-73
2023/10/20 02:06:00;;;;;;;;;0.00;0.00;;;;;17.51;75.96;97408.44;5097591;27;45537;-73
2023/10/20 02:08:25;;;;;;;;;0.00;0.00;;;;;17.51;75.99;97398.50;5097106;27;48301;-74
2023/10/20 02:10:50;;;;;;;;;0.00;0.00;;;;;17.46;76.52;97403.06;5078851;27;45908;-73
2023/10/20 02:13:16;;;;;;;;;0.00;0.00;;;;;17.23;76.12;97364.97;5097109;27;59209;-72
2023/10/20 02:15:47;;;;;;;;;0.00;0.00;;;;;17.22;76.21;97366.03;5097378;27;46642;-72
2023/10/20 02:18:13;;;;;;;;;1.00;0.00;;;;;17.40;75.87;97396.88;5097454;27;45470;-72
2023/10/20 02:20:39;;;;;;;;;1.00;0.00;;;;;17.39;75.64;97386.41;5097558;27;45311;-73
2023/10/20 02:23:04;;;;;;;;;0.00;0.00;;;;;17.36;74.80;97373.53;5097411;27;46378;-72
2023/10/20 02:25:31;;;;;;;;;0.00;0.00;;;;;17.19;75.23;97331.66;5096989;27;47270;-72
2023/10/20 02:27:56;;;;;;;;;0.00;0.00;;;;;17.25;76.05;97335.16;5100026;27;45314;-73
2023/10/20 02:30:21;;;;;;;;;0.00;0.00;;;;;17.32;75.52;97335.69;5101170;27;45525;-72
2023/10/20 02:32:47;;;;;;;;;0.00;0.00;;;;;17.24;75.19;97330.88;5100792;27;45478;-73
2023/10/20 02:35:13;;;;;;;;;1.00;0.00;;;;;17.28;75.51;97348.84;5100797;27;45449;-73
2023/10/20 02:37:39;;;;;;;;;0.00;0.00;;;;;17.13;75.44;97332.75;5100843;27;45287;-72
2023/10/20 02:40:05;;;;;;;;;0.00;0.00;;;;;17.18;75.50;97367.63;5100843;27;45274;-73
2023/10/20 02:42:33;;;;;;;;;0.00;0.00;;;;;16.80;76.22;97303.75;5100390;27;46826;-73
2023/10/20 02:44:59;;;;;;;;;0.00;0.00;;;;;16.59;75.99;97284.94;5100615;27;45272;-73
2023/10/20 02:47:24;;;;;;;;;1.00;0.00;;;;;17.01;76.02;97341.06;5100704;27;45405;-73
2023/10/20 02:49:56;;;;;;;;;0.00;0.00;;;;;17.06;75.94;97342.16;5100597;27;45360;-72
2023/10/20 02:52:22;;;;;;;;;0.00;0.00;;;;;17.13;76.43;97358.78;5100373;27;46484;-71
2023/10/20 02:54:53;;;;;;;;;0.00;0.00;;;;;17.12;77.07;97362.53;5100340;27;45458;-73
2023/10/20 02:57:22;;;;;;;;;0.00;0.00;;;;;17.16;77.64;97350.19;5100337;27;45461;-72
2023/10/20 02:59:50;;;;;;;;;0.00;0.00;;;;;17.18;76.93;97356.88;5100568;27;45509;-73
2023/10/20 03:02:17;;;;;;;;;0.00;0.00;;;;;17.11;76.85;97348.31;5100304;27;45565;-72
2023/10/20 03:04:42;;;;;;;;;0.00;0.00;;;;;17.17;77.25;97347.22;5081854;27;45426;-73
2023/10/20 03:07:08;;;;;;;;;0.00;0.00;;;;;17.18;77.20;97340.78;5100328;27;45569;-73
2023/10/20 03:09:35;;;;;;;;;0.00;0.00;;;;;16.98;76.52;97308.59;5100501;27;45384;-72
2023/10/20 03:12:00;;;;;;;;;0.00;0.00;;;;;16.84;76.73;97297.59;5099829;27;47513;-73
2023/10/20 03:14:26;;;;;;;;;0.25;0.00;;;;;16.98;76.78;97322.00;5099958;27;45518;-72
2023/10/20 03:16:51;;;;;;;;;0.00;0.00;;;;;16.72;77.22;97289.00;5100502;27;45208;-73
2023/10/20 03:19:16;;;;;;;;;0.50;0.00;;;;;16.63;77.49;97269.94;5100451;27;45518;-73
2023/10/20 03:21:42;;;;;;;;;0.00;0.00;;;;;16.85;77.18;97298.41;5081450;27;47497;-73
2023/10/20 03:24:09;;;;;;;;;0.00;0.00;;;;;16.86;77.07;97310.75;5099793;27;45501;-72
2023/10/20 03:26:34;;;;;;;;;0.00;0.00;;;;;16.91;77.15;97310.75;5099647;27;45521;-72
2023/10/20 03:28:59;;;;;;;;;1.25;1.00;;;;;16.79;77.30;97276.13;5100028;27;45441;-72
2023/10/20 03:31:25;;;;;;;;;0.00;0.00;;;;;16.94;77.77;97283.38;5099465;27;46911;-73
2023/10/20 03:33:50;;;;;;;;;0.00;0.00;;;;;16.77;77.67;97256.81;5099881;27;45253;-71
2023/10/20 03:36:16;;;;;;;;;0.00;0.00;;;;;16.91;77.61;97289.28;5099904;27;45458;-73
2023/10/20 03:38:42;;;;;;;;;0.00;0.00;;;;;16.57;78.08;97230.75;5099772;27;45309;-73
2023/10/20 03:41:09;;;;;;;;;0.00;0.00;;;;;16.91;78.30;97282.03;5099432;27;46580;-73
2023/10/20 03:43:35;;;;;;;;;2.33;2.33;;;;;16.95;78.39;97276.94;5099751;27;45449;-72
2023/10/20 03:46:02;;;;;;;;;1.00;0.00;;;;;16.96;78.80;97273.97;5081438;27;45202;-73
2023/10/20 03:48:29;;;;;;;;;1.33;1.33;;;;;16.91;78.34;97265.13;5099667;27;45348;-73
2023/10/20 03:50:55;;;;;;;;;0.00;0.00;;;;;16.86;78.24;97270.50;5099300;27;45951;-73
2023/10/20 03:53:26;;;;;;;;;0.00;0.00;;;;;16.94;78.22;97296.78;5080923;27;45364;-73
2023/10/20 03:56:04;;;;;;;;;0.00;0.00;;;;;16.63;78.73;97251.16;5099448;27;45391;-73
2023/10/20 03:58:30;;;;;;;;;0.00;0.00;;;;;16.92;78.81;97301.63;5099832;27;45424;-72
2023/10/20 04:01:03;;;;;;;;;0.00;0.00;;;;;16.65;79.64;97277.72;5099313;27;46640;-73
2023/10/20 04:03:32;;;;;;;;;0.00;0.00;;;;;16.68;79.72;97312.06;5099119;27;45358;-73
2023/10/20 04:05:58;;;;;;;;;0.75;0.75;;;;;16.79;79.78;97337.00;5099277;27;45368;-72
2023/10/20 04:08:24;;;;;;;;;1.00;1.00;;;;;16.78;79.91;97340.78;5099420;27;45334;-73
2023/10/20 04:10:56;;;;;;;;;2.00;0.00;;;;;16.67;79.92;97322.00;5080257;27;47117;-74
2023/10/20 04:13:23;;;;;;;;;0.00;0.00;;;;;16.50;79.76;97305.31;5099240;27;45299;-73
2023/10/20 04:15:49;;;;;;;;;0.00;0.00;;;;;16.64;79.84;97341.28;5099201;27;45249;-72
2023/10/20 04:18:15;;;;;;;;;0.00;0.00;;;;;16.59;79.43;97343.94;5099046;27;45585;-72
2023/10/20 04:20:41;;;;;;;;;0.00;0.00;;;;;16.35;79.55;97311.44;5098766;27;46970;-71
2023/10/20 04:23:08;;;;;;;;;0.00;0.00;;;;;16.51;79.92;97333.72;5080304;27;45579;-72
2023/10/20 04:25:39;;;;;;;;;1.00;0.00;;;;;16.57;79.26;97346.06;5098574;27;45301;-71
2023/10/20 04:52:09;;;;;;;;;0.00;0.00;;;;;16.53;79.41;97393.25;5098050;27;46301;-72
2023/10/20 04:54:45;;;;;;;;;0.75;0.75;;;;;16.55;79.79;97398.38;5098179;27;45520;-72
2023/10/20 05:00:26;;;;;;;;;1.00;0.00;;;;;16.53;79.78;97420.09;5098508;27;45345;-73
2023/10/20 05:02:39;;;;;;;;;1.75;1.00;;;;;15.95;79.79;97322.84;5097744;27;45889;-72
2023/10/20 05:05:22;;;;;;;;;0.50;0.50;;;;;16.54;79.65;97420.88;5098026;27;45258;-73
2023/10/20 05:07:50;;;;;;;;;1.75;0.50;;;;;16.51;79.74;97422.22;5098204;27;45532;-73
2023/10/20 05:10:17;;;;;;;;;2.67;2.00;;;;;16.51;79.91;97411.50;5097953;27;45423;-72
2023/10/20 05:12:43;;;;;;;;;1.25;1.25;;;;;16.55;79.86;97414.44;5097842;27;46719;-73
2023/10/20 05:15:11;;;;;;;;;1.00;1.00;;;;;16.60;80.11;97431.34;5098070;27;45435;-73
2023/10/20 05:17:37;;;;;;;;;0.00;0.00;;;;;16.40;80.21;97399.91;5097910;27;45316;-73
2023/10/20 05:20:05;;;;;;;;;1.75;1.00;;;;;16.52;80.29;97413.09;5098168;27;45336;-72
2023/10/20 05:22:34;;;;;;;;;1.00;1.00;;;;;16.49;80.26;97404.78;5097668;27;45802;-72
2023/10/20 05:24:59;;;;;;;;;1.25;1.25;;;;;16.50;80.37;97401.03;5104172;27;45506;-73
2023/10/20 05:27:24;;;;;;;;;3.00;1.00;;;;;16.45;80.47;97396.47;5097117;27;56236;-73
2023/10/20 05:29:50;;;;;;;;;1.75;1.00;;;;;16.49;80.55;97391.38;5097933;27;45561;-72
2023/10/20 05:32:17;;;;;;;;;1.00;1.00;;;;;16.49;80.37;97391.38;5097128;27;46351;-75
2023/10/20 05:34:43;;;;;;;;;2.25;2.25;;;;;16.58;80.78;97395.16;5107481;27;45583;-71
2023/10/20 05:37:09;;;;;;;;;2.00;2.00;;;;;16.61;80.48;97392.75;5097288;27;45433;-71
2023/10/20 05:39:34;;;;;;;;;1.00;0.00;;;;;16.65;80.57;97383.13;5105633;27;45469;-78
2023/10/20 05:42:01;;;;;;;;;2.50;1.00;;;;;16.65;80.67;97369.72;5114623;27;57635;-72
2023/10/20 05:44:30;;;;;;;;;1.50;1.50;;;;;16.47;80.24;97338.03;5117990;27;45417;-72
2023/10/20 05:46:56;;;;;;;;;0.25;0.25;;;;;16.60;79.85;97356.25;5106532;27;45513;-72
2023/10/20 05:49:21;;;;;;;;;1.00;0.50;;;;;16.70;80.13;97385.03;5096902;27;57696;-72
2023/10/20 05:51:46;;;;;;;;;2.33;2.00;;;;;16.48;80.26;97361.09;5097185;27;46393;-72
2023/10/20 05:54:12;;;;;;;;;4.67;3.00;;;;;16.55;80.28;97372.34;5097244;27;45489;-72
2023/10/20 05:56:37;;;;;;;;;5.00;3.00;;;;;16.54;80.68;97367.25;5096595;27;47210;-72
2023/10/20 05:59:02;;;;;;;;;5.00;3.33;;;;;16.21;80.62;97331.75;5096499;27;45447;-71
2023/10/20 06:01:28;;;;;;;;;2.00;1.00;;;;;16.47;80.93;97375.56;5092419;27;48663;-71
2023/10/20 06:03:53;;;;;;;;;2.33;2.00;;;;;16.20;80.81;97337.38;5120932;27;53899;-73
2023/10/20 06:06:18;;;;;;;;;2.00;1.67;;;;;16.57;80.83;97391.66;5121543;27;45247;-72
2023/10/20 06:08:44;;;;;;;;;1.00;1.00;;;;;16.43;80.73;97361.88;5121502;27;45619;-72
2023/10/20 06:11:09;;;;;;;;;5.00;3.67;;;;;16.62;80.48;97393.56;5097929;27;48357;-71
2023/10/20 06:13:35;;;;;;;;;1.75;0.00;;;;;16.63;80.10;97387.94;5100650;27;45448;-72
2023/10/20 06:16:20;;;;;;;;;1.00;1.00;;;;;16.59;80.08;97376.13;5106757;27;45440;-71
2023/10/20 06:18:45;;;;;;;;;0.33;0.33;;;;;16.62;80.33;97380.97;5119235;27;45354;-70
2023/10/20 06:21:16;;;;;;;;;1.00;0.00;;;;;16.49;80.18;97376.09;5110103;27;46463;-78
2023/10/20 06:23:42;;;;;;;;;0.33;0.33;;;;;16.44;80.24;97376.09;5115586;27;45509;-72
2023/10/20 06:26:08;;;;;;;;;1.00;1.00;;;;;16.51;80.54;97384.69;5109919;27;45349;-74
2023/10/20 06:28:33;;;;;;;;;2.00;1.00;;;;;16.63;80.18;97396.00;5082110;27;45305;-71
2023/10/20 06:31:22;;;;;;;;;1.75;1.75;;;;;16.50;80.09;97377.72;5100320;27;46451;-71
2023/10/20 06:33:48;;;;;;;;;4.00;3.00;;;;;16.50;79.87;97387.63;5100312;27;45313;-72
2023/10/20 06:36:20;;;;;;;;;3.00;1.00;;;;;16.57;79.94;97399.72;5081873;27;45592;-72
2023/10/20 06:38:45;;;;;;;;;2.67;1.67;;;;;16.62;79.80;97391.69;5100356;27;45220;-72
2023/10/20 06:41:13;;;;;;;;;1.00;1.00;;;;;16.64;79.97;97394.91;5100029;27;46085;-72
2023/10/20 06:43:43;;;;;;;;;18.67;14.00;;;;;16.67;79.63;97390.94;5081207;27;51595;-71
2023/10/20 06:46:09;;;;;;;;;8.33;6.33;;;;;16.48;79.83;97354.91;5100461;27;45473;-71
2023/10/20 06:48:35;;;;;;;;;22.67;20.33;;;;;16.54;79.57;97365.38;5100572;27;45428;-72
2023/10/20 06:51:00;;;;;;;;;2.00;2.00;;;;;16.37;79.47;97338.78;5099602;27;45814;-72
2023/10/20 06:53:26;;;;;;;;;1.25;1.25;;;;;16.58;79.18;97379.06;5100058;27;45429;-72
2023/10/20 06:55:51;;;;;;;;;1.00;1.00;;;;;16.65;79.05;97393.84;5086171;27;45501;-72
2023/10/20 06:58:17;;;;;;;;;2.00;2.00;;;;;16.52;79.20;97372.88;5113759;27;45331;-72
2023/10/20 07:00:46;;;;;;;;;2.00;1.00;;;;;16.70;78.78;97409.97;5113355;27;46769;-70
2023/10/20 07:03:13;;;;;;;;;1.00;1.00;;;;;16.66;78.79;97406.22;5103769;27;45406;-73
2023/10/20 07:05:41;;;;;;;;;0.25;0.25;;;;;16.60;78.79;97407.22;5105335;27;45454;-72
2023/10/20 07:08:07;;;;;;;;;1.00;1.00;;;;;16.63;78.89;97419.31;5093579;27;45396;-73
2023/10/20 07:10:39;;;;;;;;;0.00;0.00;;;;;16.53;78.90;97405.88;5108055;27;46690;-72
2023/10/20 07:13:06;;;;;;;;;0.67;0.67;;;;;16.65;78.68;97428.72;5099210;27;45361;-72
2023/10/20 07:15:35;;;;;;;;;1.00;1.00;;;;;16.61;78.80;97424.91;5105018;27;45396;-71
2023/10/20 07:18:01;;;;;;;;;1.67;1.67;;;;;16.64;79.19;97421.75;5102949;27;45564;-73
2023/10/20 07:20:27;;;;;;;;;0.00;0.00;;;;;16.62;78.52;97415.84;5098896;27;46388;-72
2023/10/20 07:22:52;;;;;;;;;2.00;1.00;;;;;16.64;78.42;97424.41;5099291;27;45255;-72
2023/10/20 07:25:18;;;;;;;;;1.67;0.67;;;;;16.60;78.81;97425.19;5107503;27;45560;-73
2023/10/20 07:27:43;;;;;;;;;2.00;2.00;;;;;16.46;79.03;97405.31;5118193;27;45558;-71
2023/10/20 07:30:10;;;;;;;;;0.50;0.50;;;;;16.58;78.80;97417.41;5099258;27;46798;-72
2023/10/20 07:32:36;;;;;;;;;1.00;1.00;;;;;16.58;78.95;97422.78;5087417;27;45403;-73
2023/10/20 07:35:03;;;;;;;;;2.75;2.75;;;;;16.29;78.84;97387.56;5118957;27;45315;-73
2023/10/20 07:37:29;;;;;;;;;4.33;1.00;;;;;16.44;78.91;97416.31;5113387;27;45357;-72
2023/10/20 07:39:54;;;;;;;;;3.00;3.00;;;;;16.59;78.67;97424.38;5099648;27;47842;-73
2023/10/20 07:42:19;;;;;;;;;2.33;2.33;;;;;16.60;78.88;97423.31;5114027;27;45636;-72
2023/10/20 07:44:45;;;;;;;;;1.25;1.25;;;;;16.62;79.00;97442.66;5116652;27;45410;-71
2023/10/20 07:47:11;;;;;;;;;1.00;1.00;;;;;16.49;77.99;97429.72;5101100;27;45506;-73
2023/10/20 07:49:36;;;;;;;;;2.00;1.50;;;;;16.55;78.36;97450.13;5117818;27;46435;-73
2023/10/20 07:52:03;;;;;;;;;1.00;1.00;;;;;16.57;78.46;97453.34;5116780;27;45319;-72
2023/10/20 07:54:29;;;;;;;;;1.00;1.00;;;;;16.57;78.33;97458.72;5106006;27;45528;-80
2023/10/20 07:56:55;;;;;;;;;1.00;1.00;;;;;16.27;78.86;97405.78;5103818;27;45587;-71
2023/10/20 07:59:21;;;;;;;;;4.00;2.50;;;;;16.41;78.50;97404.22;5098357;27;45812;-73
2023/10/20 08:01:46;;;;;;;;;2.33;2.33;;;;;16.57;77.61;97441.81;5108941;27;46513;-73
2023/10/20 08:04:11;;;;;;;;;1.00;1.00;;;;;16.61;77.85;97454.44;5077744;27;45466;-73
2023/10/20 08:06:37;;;;;;;;;2.00;1.75;;;;;16.73;77.98;97451.56;5104929;27;45254;-72
2023/10/20 08:09:02;;;;;;;;;1.00;1.00;;;;;16.74;77.86;97461.22;5095027;27;47453;-72
2023/10/20 08:11:28;;;;;;;;;3.00;2.00;;;;;16.76;77.67;97460.94;5109851;27;45508;-73
2023/10/20 08:13:55;;;;;;;;;1.00;1.00;;;;;16.69;77.18;97456.66;5083509;27;45533;-72
2023/10/20 08:16:21;;;;;;;;;2.00;2.00;;;;;16.88;77.13;97477.63;5115033;27;45501;-72
2023/10/20 08:18:47;;;;;;;;;5.33;3.00;;;;;16.79;77.15;97449.69;5104212;27;46533;-71
2023/10/20 08:21:12;;;;;;;;;1.00;1.00;;;;;16.94;75.95;97476.56;5104694;27;45656;-71
2023/10/20 08:23:38;;;;;;;;;1.00;1.00;;;;;16.92;76.04;97484.88;5103850;27;45443;-73
2023/10/20 08:26:04;;;;;;;;;1.50;1.50;;;;;16.69;75.88;97456.66;5097932;27;45383;-72
2023/10/20 08:28:30;;;;;;;;;2.75;2.00;;;;;16.94;75.76;97471.19;5098222;27;46978;-72
2023/10/20 08:31:09;;;;;;;;;0.00;0.00;;;;;17.00;75.12;97478.19;5100730;27;45374;-72
2023/10/20 08:33:35;;;;;;;;;2.00;2.00;;;;;16.98;75.67;97469.59;5097703;27;45536;-72
2023/10/20 08:36:15;;;;;;;;;2.00;2.00;;;;;17.12;75.56;97483.31;5096246;27;45692;-73
2023/10/20 08:38:42;;;;;;;;;1.00;1.00;;;;;16.93;75.36;97461.53;5109933;27;46787;-74
2023/10/20 08:41:10;;;;;;;;;4.00;3.00;;;;;17.11;75.37;97482.50;5106927;27;45674;-73
2023/10/20 08:43:37;;;;;;;;;2.00;2.00;;;;;17.11;75.26;97481.72;5104637;27;45497;-73
2023/10/20 08:46:04;;;;;;;;;2.00;2.00;;;;;17.14;75.03;97489.22;5112309;27;45615;-77
2023/10/20 08:48:30;;;;;;;;;2.00;2.00;;;;;17.02;74.79;97465.34;5098501;27;45768;-74
2023/10/20 08:50:56;;;;;;;;;4.25;1.75;;;;;16.95;74.26;97456.72;5097709;27;45194;-73
2023/10/20 08:53:22;;;;;;;;;2.33;2.33;;;;;17.15;74.46;97490.84;5100945;27;45508;-73
2023/10/20 08:55:48;;;;;;;;;4.50;1.75;;;;;17.08;74.46;97480.38;5097736;27;45318;-74
2023/10/20 08:58:13;;;;;;;;;4.00;3.00;;;;;17.12;74.21;97489.50;5078937;27;65796;-72
2023/10/20 09:00:38;;;;;;;;;3.00;2.50;;;;;17.17;73.61;97497.56;5108649;27;45543;-75
2023/10/20 09:03:04;;;;;;;;;1.25;1.25;;;;;17.26;73.57;97492.47;5095616;27;45339;-74
2023/10/20 09:05:30;;;;;;;;;2.00;2.00;;;;;17.31;73.32;97501.34;5095570;27;45494;-74
2023/10/20 09:08:00;;;;;;;;;2.00;1.25;;;;;17.36;73.01;97497.03;5080556;27;46604;-73
2023/10/20 09:10:26;;;;;;;;;1.00;1.00;;;;;17.28;72.96;97474.22;5095347;27;45612;-72
2023/10/20 09:12:52;;;;;;;;;1.00;1.00;;;;;17.64;72.49;97509.97;5098023;27;45382;-74
2023/10/20 09:15:17;;;;;;;;;3.75;2.25;;;;;17.68;71.97;97500.34;5098086;27;45505;-72
2023/10/20 09:17:44;;;;;;;;;5.25;2.00;;;;;17.69;71.48;97496.56;5108716;27;54727;-79
2023/10/20 09:20:14;;;;;;;;;1.00;1.00;;;;;17.80;71.01;97514.28;5099398;27;45510;-73
2023/10/20 09:22:40;;;;;;;;;3.00;3.00;;;;;17.68;70.68;97508.41;5104642;27;45495;-76
2023/10/20 09:25:11;;;;;;;;;1.00;1.00;;;;;17.76;71.31;97512.41;5100568;27;45542;-73
2023/10/20 09:27:37;;;;;;;;;1.25;1.00;;;;;17.67;71.02;97498.69;5084713;27;46709;-79
2023/10/20 09:30:10;;;;;;;;;5.00;2.33;;;;;17.73;71.56;97508.38;5086465;27;45308;-73
2023/10/20 09:32:36;;;;;;;;;2.00;2.00;;;;;17.74;70.70;97504.63;5097892;27;45585;-74
2023/10/20 09:35:03;;;;;;;;;3.00;2.75;;;;;17.80;70.73;97516.97;5078147;27;45358;-72
2023/10/20 09:37:30;;;;;;;;;1.25;1.25;;;;;17.85;70.79;97521.56;5082291;27;47679;-73
2023/10/20 09:40:05;;;;;;;;;1.50;1.00;;;;;17.83;70.80;97508.41;5101643;27;45488;-74
2023/10/20 09:42:46;;;;;;;;;7.00;4.00;;;;;17.87;70.50;97504.09;5108403;27;45623;-74
2023/10/20 09:45:17;;;;;;;;;4.00;3.00;;;;;17.81;70.40;97472.91;5086388;27;46841;-74
2023/10/20 09:47:45;;;;;;;;;2.00;1.50;;;;;18.29;69.65;97521.78;5098023;27;46216;-74
2023/10/20 09:50:14;;;;;;;;;1.75;1.75;;;;;18.34;69.37;97521.75;5093144;27;45632;-73
2023/10/20 09:52:40;;;;;;;;;4.00;3.50;;;;;18.23;68.83;97490.59;5107535;27;45560;-74
2023/10/20 09:55:08;;;;;;;;;2.00;2.00;;;;;18.58;68.39;97534.59;5097020;27;45478;-73
2023/10/20 09:57:34;;;;;;;;;1.00;1.00;;;;;18.50;67.47;97531.41;5104120;27;46106;-73
2023/10/20 10:00:04;;;;;;;;;2.25;0.75;;;;;18.58;67.59;97538.09;5112522;27;45385;-75
2023/10/20 10:02:31;;;;;;;;;2.00;2.00;;;;;18.51;67.47;97519.56;5106759;27;45303;-74
2023/10/20 10:04:57;;;;;;;;;2.75;2.00;;;;;18.60;67.76;97535.13;5096728;27;45398;-74
2023/10/20 10:07:33;;;;;;;;;2.25;2.00;;;;;18.31;67.30;97494.59;5112323;27;46384;-72
2023/10/20 10:09:58;;;;;;;;;2.25;2.00;;;;;18.63;67.72;97543.53;5095750;27;45907;-73
2023/10/20 10:12:27;;;;;;;;;5.00;3.75;;;;;18.62;67.81;97535.66;5087274;27;45387;-74
2023/10/20 10:15:07;;;;;;;;;2.50;2.50;;;;;18.82;67.47;97541.00;5100908;27;45484;-72
2023/10/20 10:17:47;;;;;;;;;2.00;1.50;;;;;18.80;67.25;97540.47;5097417;27;45600;-74
2023/10/20 10:20:23;;;;;;;;;3.00;2.00;;;;;18.66;67.34;97536.78;5113682;27;45532;-73
2023/10/20 10:22:58;;;;;;;;;1.00;1.00;;;;;18.66;68.51;97550.22;5116660;27;45611;-73
2023/10/20 10:25:36;;;;;;;;;4.75;2.00;;;;;18.66;69.10;97555.63;5109937;27;45494;-74
2023/10/20 10:28:22;;;;;;;;;5.00;2.50;;;;;18.64;69.74;97560.47;5101043;27;46315;-72
2023/10/20 10:30:52;;;;;;;;;1.75;1.50;;;;;18.65;70.01;97562.88;5094288;27;45459;-73
2023/10/20 10:33:24;;;;;;;;;1.75;1.75;;;;;18.53;70.28;97549.69;5108644;27;45421;-79
2023/10/20 10:36:03;;;;;;;;;1.75;1.75;;;;;18.59;70.71;97552.34;5112282;27;45485;-74
2023/10/20 10:38:29;;;;;;;;;6.50;4.00;;;;;18.68;70.78;97566.91;5096267;27;46479;-73
2023/10/20 10:40:55;;;;;;;;;3.00;3.00;;;;;18.75;71.18;97548.56;5096430;27;45375;-74
2023/10/20 10:43:21;;;;;;;;;2.75;2.75;;;;;18.86;70.73;97547.47;5116746;27;45341;-72
2023/10/20 10:45:53;;;;;;;;;3.75;3.75;;;;;18.98;70.43;97556.00;5117233;27;45506;-73
2023/10/20 10:48:22;;;;;;;;;6.00;3.25;;;;;18.96;69.84;97542.03;5117954;27;46942;-73
2023/10/20 10:50:48;;;;;;;;;6.50;5.00;;;;;18.99;69.60;97546.06;5120348;27;45205;-73
2023/10/20 10:53:14;;;;;;;;;5.00;3.50;;;;;19.05;69.61;97550.34;5120079;27;45301;-73
2023/10/20 10:55:41;;;;;;;;;4.75;3.50;;;;;19.12;69.61;97562.41;5120467;27;45296;-73
2023/10/20 10:58:09;;;;;;;;;3.50;3.50;;;;;19.17;69.14;97564.28;5119896;27;47053;-72
2023/10/20 11:00:35;;;;;;;;;6.50;5.00;;;;;19.21;69.29;97556.44;5101739;27;45281;-73
2023/10/20 11:03:02;;;;;;;;;2.00;2.00;;;;;19.35;68.93;97568.22;5119964;27;45539;-72
2023/10/20 11:05:29;;;;;;;;;4.75;2.50;;;;;19.40;68.62;97552.03;5120148;27;45341;-73
2023/10/20 11:08:09;;;;;;;;;3.75;2.75;;;;;19.53;67.85;97567.59;5119794;27;46433;-73
2023/10/20 11:10:37;;;;;;;;;3.00;3.00;;;;;19.56;67.08;97558.97;5120170;27;45526;-73
2023/10/20 11:13:08;;;;;;;;;3.00;3.00;;;;;19.63;67.20;97564.88;5103406;27;45561;-72
2023/10/20 11:15:35;;;;;;;;;3.00;3.00;;;;;19.58;66.72;97543.31;5081286;27;45483;-74
2023/10/20 11:18:02;;;;;;;;;5.00;4.00;;;;;19.67;66.11;97555.13;5080922;27;48303;-72
2023/10/20 11:20:31;;;;;;;;;2.25;2.25;;;;;19.74;66.14;97557.50;5099355;27;45275;-73
2023/10/20 11:22:57;;;;;;;;;4.00;2.00;;;;;19.39;65.54;97507.31;5099295;27;45460;-73
2023/10/20 11:25:24;;;;;;;;;4.50;4.25;;;;;19.65;65.28;97549.22;5099095;27;45303;-74
2023/10/20 11:27:54;;;;;;;;;2.75;2.75;;;;;19.70;65.90;97557.25;5099040;27;46464;-72
2023/10/20 11:30:41;;;;;;;;;4.00;3.25;;;;;19.69;65.25;97554.84;5099091;27;45398;-73
2023/10/20 11:33:10;;;;;;;;;5.25;2.25;;;;;19.62;65.14;97541.69;5099140;27;45505;-71
2023/10/20 11:35:35;;;;;;;;;4.00;2.00;;;;;19.68;65.26;97551.34;5099637;27;45360;-72
2023/10/20 11:38:01;;;;;;;;;3.75;3.75;;;;;19.68;65.81;97537.88;5099041;27;46017;-73
2023/10/20 11:40:26;;;;;;;;;2.25;2.25;;;;;19.68;65.90;97542.47;5098790;27;45329;-74
2023/10/20 11:42:52;;;;;;;;;10.75;9.00;;;;;19.57;66.87;97509.38;5097821;27;45534;-73
2023/10/20 11:45:18;;;;;;;;;8.75;6.75;;;;;19.89;66.74;97525.03;5098515;27;45350;-73
2023/10/20 11:47:43;;;;;;;;;3.00;3.00;;;;;19.92;66.25;97531.75;5108653;27;47708;-72
2023/10/20 11:50:18;;;;;;;;;5.00;3.00;;;;;19.70;65.07;97514.13;5119372;27;45462;-72
2023/10/20 11:52:44;;;;;;;;;2.25;2.25;;;;;19.58;64.73;97521.75;5086389;27;45429;-72
2023/10/20 11:55:11;;;;;;;;;2.25;2.00;;;;;19.57;65.18;97544.41;5100708;27;45359;-73
2023/10/20 11:57:37;;;;;;;;;3.00;2.00;;;;;19.49;65.79;97518.03;5118568;27;45348;-73
2023/10/20 12:00:10;;;;;;;;;2.00;2.00;;;;;19.31;65.73;97524.88;5119005;27;45341;-74
2023/10/20 12:02:36;;;;;;;;;2.50;1.50;;;;;19.33;65.34;97524.59;5119369;27;45301;-73